createdAt,value
2018-01-24T00:00:57.239Z,9.90
2018-01-24T00:01:58.336Z,9.90
2018-01-24T00:02:59.433Z,9.90
2018-01-24T00:04:00.530Z,9.90
2018-01-24T00:05:01.615Z,9.90
2018-01-24T00:06:02.795Z,9.90
2018-01-24T00:07:03.895Z,9.90
2018-01-24T00:08:04.986Z,9.90
2018-01-24T00:09:06.103Z,9.90
2018-01-24T00:10:07.203Z,9.90
2018-01-24T00:11:08.315Z,9.90
2018-01-24T00:12:09.451Z,9.90
2018-01-24T00:13:10.556Z,9.90
2018-01-24T00:14:11.655Z,9.90
2018-01-24T00:15:12.832Z,9.90
2018-01-24T00:16:14.679Z,9.90
2018-01-24T00:17:15.819Z,9.80
2018-01-24T00:18:16.923Z,9.90
2018-01-24T00:19:18.050Z,9.80
2018-01-24T00:20:19.162Z,9.80
2018-01-24T00:21:20.245Z,9.80
2018-01-24T00:22:21.313Z,9.80
2018-01-24T00:23:22.381Z,9.80
2018-01-24T00:24:23.457Z,9.80
2018-01-24T00:25:25.267Z,9.90
2018-01-24T00:26:26.343Z,9.90
2018-01-24T00:27:27.431Z,9.90
2018-01-24T00:28:28.490Z,9.90
2018-01-24T00:29:29.599Z,10.00
2018-01-24T00:30:30.672Z,10.00
2018-01-24T00:31:31.731Z,10.00
2018-01-24T00:32:32.790Z,10.00
2018-01-24T00:33:33.851Z,10.00
2018-01-24T00:34:34.934Z,10.00
2018-01-24T00:35:36.016Z,10.10
2018-01-24T00:36:37.087Z,10.10
2018-01-24T00:37:38.167Z,10.10
2018-01-24T00:38:39.222Z,10.10
2018-01-24T00:39:40.295Z,10.20
2018-01-24T00:40:42.099Z,10.20
2018-01-24T00:41:43.148Z,10.20
2018-01-24T00:42:44.209Z,10.20
2018-01-24T00:43:45.313Z,10.20
2018-01-24T00:44:47.127Z,10.20
2018-01-24T00:45:48.188Z,10.20
2018-01-24T00:46:49.259Z,10.10
2018-01-24T00:47:50.386Z,10.20
2018-01-24T00:48:52.183Z,10.20
2018-01-24T00:49:53.390Z,10.20
2018-01-24T00:50:54.463Z,10.20
2018-01-24T00:51:56.303Z,10.20
2018-01-24T00:52:58.148Z,10.10
2018-01-24T00:54:00.005Z,10.10
2018-01-24T00:55:01.091Z,10.20
2018-01-24T00:56:02.191Z,10.20
2018-01-24T00:57:03.998Z,10.20
2018-01-24T00:58:05.048Z,10.20
2018-01-24T00:59:06.122Z,10.20
2018-01-24T01:00:07.195Z,10.20
2018-01-24T01:01:08.267Z,10.20
2018-01-24T01:02:09.347Z,10.20
2018-01-24T01:03:10.414Z,10.30
2018-01-24T01:04:11.478Z,10.30
2018-01-24T01:05:12.568Z,10.30
2018-01-24T01:06:13.651Z,10.30
2018-01-24T01:07:14.732Z,10.40
2018-01-24T01:08:15.817Z,10.40
2018-01-24T01:09:16.908Z,10.40
2018-01-24T01:10:18.036Z,10.50
2018-01-24T01:11:19.106Z,10.50
2018-01-24T01:12:20.194Z,10.50
2018-01-24T01:13:21.286Z,10.50
2018-01-24T01:14:22.346Z,10.60
2018-01-24T01:15:23.451Z,10.40
2018-01-24T01:16:24.546Z,10.40
2018-01-24T01:17:25.638Z,10.50
2018-01-24T01:18:27.444Z,10.50
2018-01-24T01:19:28.872Z,10.40
2018-01-24T01:20:30.675Z,10.50
2018-01-24T01:21:31.746Z,10.50
2018-01-24T01:22:33.563Z,10.50
2018-01-24T01:23:34.672Z,10.40
2018-01-24T01:24:35.759Z,10.50
2018-01-24T01:25:37.580Z,10.50
2018-01-24T01:26:38.646Z,10.50
2018-01-24T01:27:39.748Z,10.50
2018-01-24T01:28:40.835Z,10.50
2018-01-24T01:29:42.658Z,10.60
2018-01-24T01:30:44.519Z,10.60
2018-01-24T01:31:45.675Z,10.60
2018-01-24T01:32:46.744Z,10.60
2018-01-24T01:33:47.831Z,10.60
2018-01-24T01:34:48.895Z,10.60
2018-01-24T01:35:50.020Z,10.60
2018-01-24T01:36:51.089Z,10.50
2018-01-24T01:37:52.932Z,10.50
2018-01-24T01:38:54.072Z,10.50
2018-01-24T01:39:55.943Z,10.50
2018-01-24T01:40:57.047Z,10.50
2018-01-24T01:41:58.130Z,10.50
2018-01-24T01:42:59.178Z,10.50
2018-01-24T01:44:00.271Z,10.40
2018-01-24T01:45:01.423Z,10.40
2018-01-24T01:46:02.507Z,10.40
2018-01-24T01:47:03.650Z,10.40
2018-01-24T01:48:04.731Z,10.40
2018-01-24T01:49:05.834Z,10.40
2018-01-24T01:50:06.943Z,10.40
2018-01-24T01:51:08.030Z,10.40
2018-01-24T01:52:09.113Z,10.50
2018-01-24T01:53:10.964Z,10.50
2018-01-24T01:54:12.071Z,10.50
2018-01-24T01:55:13.157Z,10.50
2018-01-24T01:56:14.284Z,10.50
2018-01-24T01:57:15.407Z,10.50
2018-01-24T01:58:17.236Z,10.50
2018-01-24T01:59:18.319Z,10.50
2018-01-24T02:00:19.395Z,10.50
2018-01-24T02:01:20.487Z,10.50
2018-01-24T02:02:22.303Z,10.50
2018-01-24T02:03:24.135Z,10.50
2018-01-24T02:04:25.222Z,10.60
2018-01-24T02:05:26.342Z,10.50
2018-01-24T02:06:27.421Z,10.60
2018-01-24T02:07:28.531Z,10.50
2018-01-24T02:08:29.587Z,10.60
2018-01-24T02:09:30.706Z,10.60
2018-01-24T02:10:31.803Z,10.60
2018-01-24T02:11:32.901Z,10.60
2018-01-24T02:12:34.710Z,10.50
2018-01-24T02:13:35.777Z,10.50
2018-01-24T02:14:36.849Z,10.50
2018-01-24T02:15:37.932Z,10.50
2018-01-24T02:16:39.023Z,10.50
2018-01-24T02:17:40.095Z,10.50
2018-01-24T02:18:41.177Z,10.50
2018-01-24T02:19:42.277Z,10.50
2018-01-24T02:20:43.355Z,10.50
2018-01-24T02:21:44.423Z,10.50
2018-01-24T02:22:45.505Z,10.50
2018-01-24T02:23:46.606Z,10.30
2018-01-24T02:24:47.709Z,10.50
2018-01-24T02:25:48.800Z,10.50
2018-01-24T02:26:49.876Z,10.50
2018-01-24T02:27:51.688Z,10.50
2018-01-24T02:28:52.775Z,10.50
2018-01-24T02:29:53.866Z,10.60
2018-01-24T02:30:54.928Z,10.60
2018-01-24T02:31:56.043Z,10.60
2018-01-24T02:32:57.151Z,10.60
2018-01-24T02:33:58.232Z,10.70
2018-01-24T02:34:59.311Z,10.70
2018-01-24T02:36:00.379Z,10.80
2018-01-24T02:37:01.475Z,10.80
2018-01-24T02:38:02.538Z,10.80
2018-01-24T02:39:14.812Z,10.80
2018-01-24T02:40:15.891Z,10.80
2018-01-24T02:41:16.959Z,10.80
2018-01-24T02:42:18.024Z,10.80
2018-01-24T02:43:19.127Z,10.70
2018-01-24T02:44:20.204Z,10.80
2018-01-24T02:45:21.275Z,10.80
2018-01-24T02:46:22.411Z,10.90
2018-01-24T02:47:23.495Z,10.90
2018-01-24T02:48:24.570Z,10.80
2018-01-24T02:49:25.752Z,10.80
2018-01-24T02:50:26.850Z,10.90
2018-01-24T02:51:27.961Z,10.90
2018-01-24T02:52:29.807Z,10.90
2018-01-24T02:53:30.874Z,10.90
2018-01-24T02:54:32.760Z,10.90
2018-01-24T02:55:33.847Z,10.90
2018-01-24T02:56:34.916Z,10.90
2018-01-24T02:57:35.996Z,10.90
2018-01-24T02:58:37.059Z,10.90
2018-01-24T02:59:38.118Z,10.80
2018-01-24T03:00:39.211Z,10.80
2018-01-24T03:01:40.289Z,10.80
2018-01-24T03:02:41.360Z,10.80
2018-01-24T03:03:42.443Z,10.80
2018-01-24T03:04:43.572Z,10.80
2018-01-24T03:05:44.656Z,10.80
2018-01-24T03:06:45.723Z,10.80
2018-01-24T03:07:46.783Z,10.80
2018-01-24T03:08:47.863Z,10.80
2018-01-24T03:09:48.988Z,10.60
2018-01-24T03:10:50.072Z,10.80
2018-01-24T03:11:51.155Z,10.70
2018-01-24T03:12:52.969Z,10.70
2018-01-24T03:13:54.048Z,10.70
2018-01-24T03:14:55.104Z,10.80
2018-01-24T03:15:56.199Z,10.70
2018-01-24T03:16:58.016Z,10.70
2018-01-24T03:17:59.095Z,10.70
2018-01-24T03:19:00.159Z,10.70
2018-01-24T03:20:01.214Z,10.70
2018-01-24T03:21:02.291Z,10.70
2018-01-24T03:22:03.431Z,10.70
2018-01-24T03:23:04.499Z,10.70
2018-01-24T03:24:05.573Z,10.70
2018-01-24T03:25:06.699Z,10.60
2018-01-24T03:26:07.847Z,10.70
2018-01-24T03:27:08.962Z,10.70
2018-01-24T03:28:10.791Z,10.70
2018-01-24T03:29:11.891Z,10.70
2018-01-24T03:30:12.972Z,10.70
2018-01-24T03:31:14.043Z,10.70
2018-01-24T03:32:15.104Z,10.70
2018-01-24T03:33:16.188Z,10.70
2018-01-24T03:34:17.254Z,10.70
2018-01-24T03:35:18.336Z,10.70
2018-01-24T03:36:19.405Z,10.70
2018-01-24T03:37:20.487Z,10.70
2018-01-24T03:38:21.575Z,10.70
2018-01-24T03:39:22.690Z,10.70
2018-01-24T03:40:23.755Z,10.60
2018-01-24T03:41:24.856Z,10.60
2018-01-24T03:42:25.959Z,10.60
2018-01-24T03:43:27.775Z,10.60
2018-01-24T03:44:28.851Z,10.60
2018-01-24T03:45:30.694Z,10.60
2018-01-24T03:46:31.746Z,10.60
2018-01-24T03:47:32.851Z,10.60
2018-01-24T03:48:34.678Z,10.50
2018-01-24T03:49:35.775Z,10.50
2018-01-24T03:50:36.847Z,10.50
2018-01-24T03:51:37.923Z,10.50
2018-01-24T03:52:38.995Z,10.50
2018-01-24T03:53:40.078Z,10.50
2018-01-24T03:54:41.911Z,10.50
2018-01-24T03:55:43.027Z,10.50
2018-01-24T03:56:44.094Z,10.50
2018-01-24T03:57:45.144Z,10.50
2018-01-24T03:58:46.232Z,10.50
2018-01-24T03:59:47.305Z,10.50
2018-01-24T04:00:48.403Z,10.50
2018-01-24T04:01:49.506Z,10.50
2018-01-24T04:02:50.578Z,10.50
2018-01-24T04:03:51.739Z,10.50
2018-01-24T04:04:52.798Z,10.50
2018-01-24T04:05:53.891Z,10.40
2018-01-24T04:06:55.707Z,10.40
2018-01-24T04:07:56.790Z,10.40
2018-01-24T04:08:57.867Z,10.40
2018-01-24T04:09:58.955Z,10.40
2018-01-24T04:11:00.026Z,10.40
2018-01-24T04:12:01.115Z,10.40
2018-01-24T04:13:02.211Z,10.40
2018-01-24T04:14:03.275Z,10.40
2018-01-24T04:15:05.071Z,10.30
2018-01-24T04:16:06.163Z,10.30
2018-01-24T04:17:07.285Z,10.30
2018-01-24T04:18:08.347Z,10.30
2018-01-24T04:19:09.416Z,10.30
2018-01-24T04:20:10.482Z,10.20
2018-01-24T04:21:11.588Z,10.20
2018-01-24T04:22:12.652Z,10.30
2018-01-24T04:23:13.718Z,10.20
2018-01-24T04:24:14.816Z,10.20
2018-01-24T04:25:15.901Z,10.20
2018-01-24T04:26:16.980Z,10.20
2018-01-24T04:27:18.067Z,10.20
2018-01-24T04:28:19.138Z,10.20
2018-01-24T04:29:20.244Z,10.20
2018-01-24T04:30:21.314Z,10.20
2018-01-24T04:31:22.391Z,10.10
2018-01-24T04:32:23.458Z,10.20
2018-01-24T04:33:24.507Z,10.10
2018-01-24T04:34:26.299Z,10.20
2018-01-24T04:35:27.376Z,10.10
2018-01-24T04:36:28.494Z,10.10
2018-01-24T04:37:30.330Z,10.10
2018-01-24T04:38:31.384Z,10.10
2018-01-24T04:39:33.216Z,10.20
2018-01-24T04:40:34.311Z,10.20
2018-01-24T04:41:35.399Z,10.20
2018-01-24T04:42:37.213Z,10.30
2018-01-24T04:43:38.272Z,10.30
2018-01-24T04:44:40.099Z,10.30
2018-01-24T04:45:41.182Z,10.30
2018-01-24T04:46:42.263Z,10.30
2018-01-24T04:47:43.503Z,10.40
2018-01-24T04:48:44.618Z,10.30
2018-01-24T04:49:45.710Z,10.30
2018-01-24T04:50:47.555Z,10.30
2018-01-24T04:51:48.655Z,10.30
2018-01-24T04:52:49.740Z,10.30
2018-01-24T04:53:50.834Z,10.30
2018-01-24T04:54:51.911Z,10.30
2018-01-24T04:55:53.747Z,10.30
2018-01-24T04:56:54.856Z,10.30
2018-01-24T04:57:56.670Z,10.20
2018-01-24T04:58:57.747Z,10.20
2018-01-24T04:59:59.601Z,10.20
2018-01-24T05:01:00.734Z,10.10
2018-01-24T05:02:01.839Z,10.10
2018-01-24T05:03:03.667Z,10.10
2018-01-24T05:04:04.744Z,10.10
2018-01-24T05:05:05.822Z,10.00
2018-01-24T05:06:06.923Z,10.00
2018-01-24T05:07:08.030Z,10.00
2018-01-24T05:08:09.102Z,10.00
2018-01-24T05:09:10.215Z,10.00
2018-01-24T05:10:11.303Z,10.00
2018-01-24T05:11:12.408Z,10.00
2018-01-24T05:12:13.595Z,10.00
2018-01-24T05:13:15.446Z,10.00
2018-01-24T05:14:17.315Z,10.00
2018-01-24T05:15:18.419Z,10.00
2018-01-24T05:16:19.514Z,10.00
2018-01-24T05:17:20.612Z,10.00
2018-01-24T05:18:22.524Z,10.00
2018-01-24T05:19:23.631Z,10.00
2018-01-24T05:20:26.491Z,10.00
2018-01-24T05:21:27.639Z,10.00
2018-01-24T05:22:28.788Z,10.00
2018-01-24T05:23:29.994Z,10.00
2018-01-24T05:24:31.122Z,10.00
2018-01-24T05:25:32.198Z,10.00
2018-01-24T05:26:33.311Z,10.10
2018-01-24T05:27:34.380Z,9.90
2018-01-24T05:28:35.462Z,10.10
2018-01-24T05:29:37.291Z,10.20
2018-01-24T05:30:38.369Z,10.30
2018-01-24T05:31:39.460Z,10.20
2018-01-24T05:32:40.526Z,10.20
2018-01-24T05:33:41.603Z,10.20
2018-01-24T05:34:42.733Z,10.20
2018-01-24T05:35:44.538Z,10.20
2018-01-24T05:36:45.615Z,10.20
2018-01-24T05:37:46.695Z,10.20
2018-01-24T05:38:47.812Z,10.20
2018-01-24T05:39:48.917Z,10.10
2018-01-24T05:40:50.719Z,10.10
2018-01-24T05:41:51.778Z,10.10
2018-01-24T05:42:52.861Z,10.10
2018-01-24T05:43:53.927Z,10.00
2018-01-24T05:44:55.011Z,10.10
2018-01-24T05:45:56.080Z,10.00
2018-01-24T05:46:57.146Z,10.00
2018-01-24T05:47:58.239Z,10.00
2018-01-24T05:48:59.283Z,9.80
2018-01-24T05:50:00.342Z,9.90
2018-01-24T05:51:01.435Z,9.90
2018-01-24T05:52:02.553Z,9.90
2018-01-24T05:53:03.628Z,9.90
2018-01-24T05:54:04.695Z,9.80
2018-01-24T05:55:05.772Z,9.80
2018-01-24T05:56:06.865Z,9.80
2018-01-24T05:57:07.936Z,9.80
2018-01-24T05:58:09.022Z,9.80
2018-01-24T05:59:10.845Z,9.80
2018-01-24T06:00:11.939Z,9.70
2018-01-24T06:01:13.015Z,9.70
2018-01-24T06:02:14.819Z,9.70
2018-01-24T06:03:15.891Z,9.70
2018-01-24T06:04:16.972Z,9.70
2018-01-24T06:05:18.070Z,9.70
2018-01-24T06:06:19.870Z,9.70
2018-01-24T06:07:20.946Z,9.70
2018-01-24T06:08:22.079Z,9.70
2018-01-24T06:09:23.914Z,9.70
2018-01-24T06:10:25.004Z,9.70
2018-01-24T06:11:26.169Z,9.70
2018-01-24T06:12:27.354Z,9.80
2018-01-24T06:13:28.535Z,9.70
2018-01-24T06:14:29.728Z,9.70
2018-01-24T06:15:30.795Z,9.70
2018-01-24T06:16:31.923Z,9.70
2018-01-24T06:17:32.982Z,9.70
2018-01-24T06:18:34.055Z,9.80
2018-01-24T06:19:35.115Z,9.80
2018-01-24T06:20:36.172Z,9.80
2018-01-24T06:21:37.248Z,9.80
2018-01-24T06:22:38.326Z,9.90
2018-01-24T06:23:39.412Z,9.90
2018-01-24T06:24:40.474Z,9.90
2018-01-24T06:25:41.542Z,9.90
2018-01-24T06:26:42.616Z,9.90
2018-01-24T06:27:43.686Z,9.90
2018-01-24T06:28:44.793Z,10.00
2018-01-24T06:29:45.925Z,10.00
2018-01-24T06:30:46.963Z,9.90
2018-01-24T06:31:48.046Z,9.90
2018-01-24T06:32:50.206Z,9.90
2018-01-24T06:33:51.595Z,10.00
2018-01-24T06:34:52.867Z,10.00
2018-01-24T06:35:54.884Z,9.80
2018-01-24T06:36:56.832Z,10.00
2018-01-24T06:39:03.756Z,10.00
2018-01-24T06:40:05.576Z,10.00
2018-01-24T06:41:06.668Z,10.00
2018-01-24T06:42:07.731Z,10.10
2018-01-24T06:43:08.790Z,10.10
2018-01-24T06:44:09.903Z,10.10
2018-01-24T06:45:10.999Z,10.10
2018-01-24T06:46:12.058Z,10.00
2018-01-24T06:47:13.175Z,10.10
2018-01-24T06:48:14.991Z,10.00
2018-01-24T06:49:16.811Z,10.00
2018-01-24T06:50:17.875Z,10.00
2018-01-24T06:51:19.728Z,10.10
2018-01-24T06:52:20.810Z,10.00
2018-01-24T06:53:21.891Z,10.00
2018-01-24T06:54:23.718Z,10.10
2018-01-24T06:55:24.787Z,10.10
2018-01-24T06:56:25.850Z,10.00
2018-01-24T06:57:27.027Z,10.00
2018-01-24T06:58:28.124Z,10.00
2018-01-24T06:59:29.199Z,9.90
2018-01-24T07:00:30.273Z,9.90
2018-01-24T07:01:31.343Z,9.90
2018-01-24T07:02:32.402Z,9.90
2018-01-24T07:03:33.510Z,9.90
2018-01-24T07:04:34.587Z,9.90
2018-01-24T07:05:35.679Z,9.90
2018-01-24T07:06:36.767Z,9.70
2018-01-24T07:07:37.838Z,9.90
2018-01-24T07:08:38.913Z,9.90
2018-01-24T07:09:40.008Z,9.90
2018-01-24T07:10:41.090Z,9.90
2018-01-24T07:11:42.182Z,9.90
2018-01-24T07:14:26.183Z,9.90
2018-01-24T07:15:27.250Z,9.90
2018-01-24T07:16:28.352Z,9.90
2018-01-24T07:17:29.434Z,9.90
2018-01-24T07:18:31.269Z,9.80
2018-01-24T07:19:32.362Z,9.80
2018-01-24T07:20:33.431Z,9.70
2018-01-24T07:21:34.563Z,9.60
2018-01-24T07:22:35.669Z,9.60
2018-01-24T07:23:36.699Z,9.60
2018-01-24T07:24:37.791Z,9.60
2018-01-24T07:25:38.855Z,9.60
2018-01-24T07:26:39.898Z,9.60
2018-01-24T07:27:40.972Z,9.60
2018-01-24T07:28:42.762Z,9.60
2018-01-24T07:29:43.822Z,9.60
2018-01-24T07:30:44.889Z,9.60
2018-01-24T07:31:45.947Z,9.60
2018-01-24T07:32:47.026Z,9.60
2018-01-24T07:33:48.091Z,9.50
2018-01-24T07:34:49.175Z,9.50
2018-01-24T07:35:50.250Z,9.50
2018-01-24T07:36:52.070Z,9.40
2018-01-24T07:37:53.132Z,9.40
2018-01-24T07:38:54.197Z,9.40
2018-01-24T07:39:55.284Z,9.40
2018-01-24T07:40:56.451Z,9.30
2018-01-24T07:41:58.219Z,9.30
2018-01-24T07:42:59.295Z,9.30
2018-01-24T07:44:01.225Z,9.30
2018-01-24T07:45:02.303Z,9.20
2018-01-24T07:46:03.387Z,9.20
2018-01-24T07:47:04.449Z,9.20
2018-01-24T07:48:05.526Z,9.20
2018-01-24T07:49:06.582Z,9.20
2018-01-24T07:50:07.658Z,9.20
2018-01-24T07:51:09.455Z,9.20
2018-01-24T07:52:10.523Z,9.20
2018-01-24T07:53:12.410Z,9.10
2018-01-24T07:54:13.519Z,9.10
2018-01-24T07:55:14.598Z,9.20
2018-01-24T07:56:15.669Z,9.10
2018-01-24T07:57:16.754Z,9.10
2018-01-24T07:58:17.815Z,9.10
2018-01-24T07:59:18.983Z,9.10
2018-01-24T08:00:20.807Z,9.10
2018-01-24T08:01:21.903Z,9.10
2018-01-24T08:02:23.003Z,9.10
2018-01-24T08:03:24.299Z,9.10
2018-01-24T08:04:25.377Z,9.10
2018-01-24T08:05:26.463Z,9.10
2018-01-24T08:06:27.513Z,9.10
2018-01-24T08:07:28.569Z,9.10
2018-01-24T08:08:29.650Z,9.00
2018-01-24T08:09:30.734Z,9.00
2018-01-24T08:10:31.823Z,9.00
2018-01-24T08:11:32.908Z,9.00
2018-01-24T08:12:33.994Z,9.00
2018-01-24T08:13:35.070Z,9.10
2018-01-24T08:14:36.126Z,9.00
2018-01-24T08:15:37.205Z,9.10
2018-01-24T08:16:38.250Z,9.10
2018-01-24T08:17:40.040Z,9.20
2018-01-24T08:18:41.096Z,9.20
2018-01-24T08:19:42.159Z,9.20
2018-01-24T08:20:43.247Z,9.30
2018-01-24T08:21:44.321Z,9.30
2018-01-24T08:22:45.412Z,9.30
2018-01-24T08:23:46.490Z,9.30
2018-01-24T08:24:47.579Z,9.30
2018-01-24T08:25:48.682Z,9.40
2018-01-24T08:26:49.758Z,9.40
2018-01-24T08:27:50.819Z,9.40
2018-01-24T08:28:51.911Z,9.50
2018-01-24T08:29:52.974Z,9.50
2018-01-24T08:30:54.814Z,9.60
2018-01-24T08:31:55.899Z,9.60
2018-01-24T08:32:57.008Z,9.60
2018-01-24T08:33:58.105Z,9.60
2018-01-24T08:34:59.215Z,9.60
2018-01-24T08:36:00.287Z,9.50
2018-01-24T08:37:01.354Z,9.70
2018-01-24T08:38:02.404Z,9.70
2018-01-24T08:39:03.475Z,9.70
2018-01-24T08:40:05.333Z,9.70
2018-01-24T08:41:06.448Z,9.70
2018-01-24T08:42:07.558Z,9.70
2018-01-24T08:43:08.659Z,9.70
2018-01-24T08:44:09.734Z,9.80
2018-01-24T08:45:10.824Z,9.70
2018-01-24T08:46:11.898Z,9.90
2018-01-24T08:47:12.986Z,9.70
2018-01-24T08:48:14.063Z,9.70
2018-01-24T08:49:15.131Z,9.70
2018-01-24T08:50:16.933Z,9.70
2018-01-24T08:51:18.017Z,9.70
2018-01-24T08:52:19.102Z,9.70
2018-01-24T08:53:20.171Z,9.70
2018-01-24T08:54:21.987Z,9.70
2018-01-24T08:55:23.053Z,9.70
2018-01-24T08:56:24.865Z,9.80
2018-01-24T08:57:25.936Z,9.80
2018-01-24T08:58:27.035Z,9.80
2018-01-24T08:59:28.382Z,9.80
2018-01-24T09:00:48.035Z,9.80
2018-01-24T09:02:13.686Z,9.80
2018-01-24T09:03:39.479Z,9.90
2018-01-24T09:05:05.173Z,9.70
2018-01-24T09:06:30.921Z,9.90
2018-01-24T09:07:56.615Z,9.90
2018-01-24T09:09:22.324Z,10.00
2018-01-24T09:10:48.006Z,10.00
2018-01-24T09:12:13.678Z,10.00
2018-01-24T09:13:39.367Z,9.90
2018-01-24T09:15:05.146Z,9.90
2018-01-24T09:16:30.863Z,9.90
2018-01-24T09:17:56.647Z,9.90
2018-01-24T09:19:22.314Z,9.90
2018-01-24T09:20:48.095Z,9.90
2018-01-24T09:22:13.943Z,9.90
2018-01-24T09:23:37.265Z,9.90
2018-01-24T09:24:57.740Z,10.00
2018-01-24T09:25:58.911Z,10.00
2018-01-24T09:26:59.991Z,10.00
2018-01-24T09:28:01.075Z,10.00
2018-01-24T09:29:02.886Z,10.00
2018-01-24T09:30:03.980Z,10.00
2018-01-24T09:31:05.054Z,10.00
2018-01-24T09:32:06.126Z,10.00
2018-01-24T09:33:07.202Z,10.10
2018-01-24T09:34:08.268Z,10.20
2018-01-24T09:35:09.327Z,10.30
2018-01-24T09:36:10.395Z,10.20
2018-01-24T09:37:11.479Z,10.20
2018-01-24T09:38:12.556Z,10.30
2018-01-24T09:39:13.631Z,10.30
2018-01-24T09:40:15.492Z,10.40
2018-01-24T09:41:17.325Z,10.40
2018-01-24T09:42:18.522Z,10.40
2018-01-24T09:43:19.607Z,10.40
2018-01-24T09:44:21.407Z,10.50
2018-01-24T09:45:22.459Z,10.50
2018-01-24T09:46:23.515Z,10.50
2018-01-24T09:47:25.330Z,10.60
2018-01-24T09:48:26.397Z,10.60
2018-01-24T09:49:27.494Z,10.60
2018-01-24T09:50:28.558Z,10.60
2018-01-24T09:51:30.375Z,10.70
2018-01-24T09:52:31.433Z,10.70
2018-01-24T09:53:32.493Z,10.80
2018-01-24T09:54:33.616Z,10.70
2018-01-24T09:55:34.703Z,10.80
2018-01-24T09:56:36.708Z,10.80
2018-01-24T09:57:37.791Z,10.90
2018-01-24T09:58:38.868Z,10.80
2018-01-24T09:59:40.747Z,10.90
2018-01-24T10:00:41.853Z,10.90
2018-01-24T10:01:42.928Z,10.90
2018-01-24T10:02:44.074Z,11.00
2018-01-24T10:03:45.397Z,11.00
2018-01-24T10:04:46.479Z,11.00
2018-01-24T10:05:47.615Z,11.10
2018-01-24T10:06:48.740Z,11.10
2018-01-24T10:07:49.864Z,11.20
2018-01-24T10:08:50.951Z,11.30
2018-01-24T10:09:52.091Z,11.30
2018-01-24T10:10:53.182Z,11.40
2018-01-24T10:11:54.974Z,11.50
2018-01-24T10:12:56.062Z,11.50
2018-01-24T10:13:57.884Z,11.50
2018-01-24T10:14:58.979Z,11.50
2018-01-24T10:16:00.053Z,11.60
2018-01-24T10:17:01.422Z,11.60
2018-01-24T10:18:02.575Z,11.70
2018-01-24T10:19:04.373Z,11.70
2018-01-24T10:20:05.524Z,11.70
2018-01-24T10:21:06.627Z,11.80
2018-01-24T10:22:07.903Z,11.80
2018-01-24T10:23:11.015Z,11.80
2018-01-24T10:24:12.158Z,11.80
2018-01-24T10:25:13.262Z,11.90
2018-01-24T10:26:14.330Z,12.10
2018-01-24T10:27:15.391Z,11.90
2018-01-24T10:28:16.467Z,12.00
2018-01-24T10:29:17.551Z,12.00
2018-01-24T10:30:18.819Z,12.00
2018-01-24T10:31:19.882Z,12.20
2018-01-24T10:32:20.956Z,12.10
2018-01-24T10:33:22.026Z,12.10
2018-01-24T10:34:23.098Z,12.20
2018-01-24T10:35:24.175Z,12.20
2018-01-24T10:36:25.291Z,12.20
2018-01-24T10:37:26.383Z,12.20
2018-01-24T10:38:27.496Z,12.30
2018-01-24T10:39:28.583Z,12.30
2018-01-24T10:40:29.734Z,12.30
2018-01-24T10:41:31.542Z,12.40
2018-01-24T10:42:32.620Z,12.30
2018-01-24T10:43:34.435Z,12.40
2018-01-24T10:44:35.503Z,12.40
2018-01-24T10:45:37.367Z,12.40
2018-01-24T10:46:38.456Z,12.50
2018-01-24T10:47:39.535Z,12.50
2018-01-24T10:48:40.615Z,12.50
2018-01-24T10:49:41.723Z,12.50
2018-01-24T10:50:42.797Z,12.50
2018-01-24T10:51:43.879Z,12.70
2018-01-24T10:52:45.007Z,12.60
2018-01-24T10:53:46.092Z,12.60
2018-01-24T10:54:47.175Z,12.60
2018-01-24T10:55:48.255Z,12.50
2018-01-24T10:56:49.996Z,12.60
2018-01-24T10:57:51.102Z,12.60
2018-01-24T10:58:52.234Z,12.60
2018-01-24T10:59:53.382Z,12.60
2018-01-24T11:00:54.463Z,12.60
2018-01-24T11:01:55.554Z,12.60
2018-01-24T11:02:56.610Z,12.60
2018-01-24T11:03:57.727Z,12.60
2018-01-24T11:04:58.827Z,12.70
2018-01-24T11:06:00.635Z,12.70
2018-01-24T11:07:01.729Z,12.70
2018-01-24T11:08:02.822Z,12.70
2018-01-24T11:09:03.912Z,12.70
2018-01-24T11:10:04.976Z,12.80
2018-01-24T11:11:06.048Z,12.80
2018-01-24T11:12:07.127Z,12.80
2018-01-24T11:13:08.245Z,12.80
2018-01-24T11:14:09.336Z,12.80
2018-01-24T11:15:10.398Z,12.90
2018-01-24T11:16:12.217Z,12.90
2018-01-24T11:17:13.303Z,12.90
2018-01-24T11:18:15.127Z,12.90
2018-01-24T11:19:16.232Z,12.90
2018-01-24T11:20:17.415Z,13.00
2018-01-24T11:21:18.463Z,13.00
2018-01-24T11:22:19.648Z,13.00
2018-01-24T11:23:20.741Z,13.10
2018-01-24T11:24:22.112Z,13.10
2018-01-24T11:25:23.331Z,13.20
2018-01-24T11:26:24.474Z,13.20
2018-01-24T11:27:25.581Z,13.20
2018-01-24T11:28:27.754Z,13.30
2018-01-24T11:29:28.912Z,13.30
2018-01-24T11:30:30.103Z,13.30
2018-01-24T11:31:31.183Z,13.40
2018-01-24T11:32:32.237Z,13.40
2018-01-24T11:33:33.370Z,13.50
2018-01-24T11:34:34.562Z,13.50
2018-01-24T11:35:35.638Z,13.50
2018-01-24T11:36:36.697Z,13.60
2018-01-24T11:37:37.768Z,13.60
2018-01-24T11:38:38.916Z,13.60
2018-01-24T11:39:40.065Z,13.60
2018-01-24T11:40:41.883Z,13.70
2018-01-24T11:41:42.950Z,13.70
2018-01-24T11:42:44.046Z,13.70
2018-01-24T11:43:45.136Z,13.70
2018-01-24T11:44:46.226Z,13.70
2018-01-24T11:45:47.307Z,13.70
2018-01-24T11:46:48.387Z,13.70
2018-01-24T11:47:49.452Z,13.70
2018-01-24T11:48:50.528Z,13.70
2018-01-24T11:49:51.623Z,13.70
2018-01-24T11:50:52.710Z,13.70
2018-01-24T11:51:53.775Z,13.70
2018-01-24T11:52:54.855Z,13.70
2018-01-24T11:53:55.932Z,13.80
2018-01-24T11:54:57.030Z,13.80
2018-01-24T11:55:58.225Z,13.70
2018-01-24T11:57:00.066Z,13.80
2018-01-24T11:58:01.164Z,13.80
2018-01-24T11:59:02.239Z,13.80
2018-01-24T12:00:03.334Z,13.80
2018-01-24T12:01:04.467Z,13.90
2018-01-24T12:02:05.552Z,13.90
2018-01-24T12:03:06.618Z,13.90
2018-01-24T12:04:07.697Z,14.00
2018-01-24T12:05:08.803Z,14.10
2018-01-24T12:06:09.892Z,14.00
2018-01-24T12:07:11.025Z,14.00
2018-01-24T12:08:12.119Z,14.00
2018-01-24T12:09:13.287Z,14.00
2018-01-24T12:10:14.411Z,14.00
2018-01-24T12:11:15.499Z,14.00
2018-01-24T12:12:16.575Z,13.90
2018-01-24T12:13:17.667Z,13.90
2018-01-24T12:14:18.831Z,13.90
2018-01-24T12:15:19.981Z,14.00
2018-01-24T12:16:21.791Z,14.00
2018-01-24T12:17:22.865Z,14.00
2018-01-24T12:18:23.951Z,14.00
2018-01-24T12:19:26.078Z,14.10
2018-01-24T12:20:27.199Z,14.00
2018-01-24T12:21:28.281Z,14.00
2018-01-24T12:22:29.371Z,13.90
2018-01-24T12:23:30.446Z,13.90
2018-01-24T12:24:33.152Z,13.90
2018-01-24T12:25:34.275Z,13.90
2018-01-24T12:26:35.463Z,13.90
2018-01-24T12:27:36.520Z,13.90
2018-01-24T12:28:37.672Z,13.90
2018-01-24T12:29:39.750Z,13.90
2018-01-24T12:30:40.839Z,14.00
2018-01-24T12:31:41.944Z,14.00
2018-01-24T12:32:43.027Z,14.00
2018-01-24T12:33:44.121Z,14.00
2018-01-24T12:34:45.217Z,14.00
2018-01-24T12:35:46.323Z,14.00
2018-01-24T12:36:47.430Z,14.00
2018-01-24T12:37:49.283Z,14.10
2018-01-24T12:38:50.379Z,14.00
2018-01-24T12:39:51.513Z,14.00
2018-01-24T12:40:52.576Z,14.10
2018-01-24T12:41:53.649Z,14.10
2018-01-24T12:42:54.828Z,14.10
2018-01-24T12:43:55.911Z,14.00
2018-01-24T12:44:57.091Z,14.20
2018-01-24T12:45:58.252Z,14.20
2018-01-24T12:46:59.351Z,14.20
2018-01-24T12:48:00.424Z,14.20
2018-01-24T12:49:02.007Z,14.20
2018-01-24T12:50:03.150Z,14.20
2018-01-24T12:51:04.231Z,14.30
2018-01-24T12:52:05.333Z,14.30
2018-01-24T12:53:06.407Z,14.40
2018-01-24T12:54:07.549Z,14.40
2018-01-24T12:55:08.624Z,14.40
2018-01-24T12:56:09.697Z,14.40
2018-01-24T12:57:11.611Z,14.50
2018-01-24T12:58:12.680Z,14.50
2018-01-24T12:59:14.552Z,14.60
2018-01-24T13:00:15.639Z,14.60
2018-01-24T13:01:16.748Z,14.60
2018-01-24T13:02:17.880Z,14.70
2018-01-24T13:03:18.979Z,14.70
2018-01-24T13:04:20.067Z,14.80
2018-01-24T13:05:21.158Z,14.70
2018-01-24T13:06:22.265Z,14.70
2018-01-24T13:07:23.326Z,14.80
2018-01-24T13:08:24.403Z,14.80
2018-01-24T13:09:25.478Z,14.80
2018-01-24T13:10:26.587Z,14.90
2018-01-24T13:11:27.684Z,14.90
2018-01-24T13:12:28.823Z,14.90
2018-01-24T13:13:29.913Z,14.90
2018-01-24T13:14:31.019Z,15.00
2018-01-24T13:15:32.856Z,14.90
2018-01-24T13:16:33.944Z,15.00
2018-01-24T13:17:35.089Z,15.00
2018-01-24T13:18:36.186Z,14.90
2018-01-24T13:19:37.287Z,15.10
2018-01-24T13:20:38.383Z,15.10
2018-01-24T13:21:39.488Z,15.00
2018-01-24T13:22:40.628Z,15.00
2018-01-24T13:23:41.728Z,15.00
2018-01-24T13:24:42.819Z,15.00
2018-01-24T13:25:44.114Z,15.00